Time;durP1;ratioP1;P1;durP2;ratioP2;P2;SDS_P1;SDS_P2;PMS_P1;PMS_P2;Temp;Humidity;BMP_temperature;BMP_pressure;BME280_temperature;BME280_humidity;BME280_pressure;Samples;Min_cycle;Max_cycle;Signal;HPM_P1;HPM_P2
2023/05/20 00:00:27;;;;;;;3.60;1.98;;;17.10;45.50;;;;;;5009626;28;20498;-46
2023/05/20 00:02:54;;;;;;;2.15;1.90;;;17.00;45.30;;;;;;5007826;28;20046;-48
2023/05/20 00:05:24;;;;;;;4.38;1.67;;;16.90;45.20;;;;;;5008143;28;20104;-49
2023/05/20 00:07:50;;;;;;;4.65;2.05;;;17.00;45.30;;;;;;5010209;28;20077;-46
2023/05/20 00:10:19;;;;;;;5.60;2.40;;;16.90;45.20;;;;;;5017702;28;20051;-49
2023/05/20 00:12:50;;;;;;;5.20;2.50;;;16.90;45.60;;;;;;5006038;28;20052;-46
2023/05/20 00:15:19;;;;;;;2.35;2.03;;;16.90;45.50;;;;;;5009544;28;20153;-47
2023/05/20 00:17:46;;;;;;;2.42;2.22;;;16.90;45.60;;;;;;5010742;28;20052;-47
2023/05/20 00:20:18;;;;;;;3.28;2.13;;;16.90;45.70;;;;;;5009488;28;20041;-48
2023/05/20 00:22:45;;;;;;;3.55;1.85;;;16.90;45.50;;;;;;5004601;28;20052;-47
2023/05/20 00:25:13;;;;;;;4.00;2.22;;;16.90;45.60;;;;;;5008402;28;20049;-46
2023/05/20 00:27:40;;;;;;;3.38;2.42;;;16.90;45.60;;;;;;5019399;28;20046;-46
2023/05/20 00:30:13;;;;;;;3.00;1.92;;;16.90;45.80;;;;;;4999997;28;20061;-47
2023/05/20 00:32:40;;;;;;;2.28;2.08;;;16.90;46.00;;;;;;4971896;28;20046;-45
2023/05/20 00:35:10;;;;;;;2.15;1.92;;;16.80;45.70;;;;;;5003179;28;20041;-46
2023/05/20 00:37:39;;;;;;;4.22;2.35;;;16.80;45.90;;;;;;4992510;28;20042;-47
2023/05/20 00:40:06;;;;;;;2.45;1.70;;;16.80;46.10;;;;;;5008946;28;20164;-45
2023/05/20 00:42:33;;;;;;;2.67;1.65;;;16.80;45.90;;;;;;4990349;28;20674;-46
2023/05/20 00:45:10;;;;;;;2.78;2.00;;;16.70;45.80;;;;;;5012946;28;20045;-46
2023/05/20 00:47:41;;;;;;;3.65;2.00;;;16.70;46.10;;;;;;4992590;28;20065;-46
2023/05/20 00:50:10;;;;;;;2.40;2.05;;;16.70;45.70;;;;;;4989288;28;20052;-46
2023/05/20 00:52:43;;;;;;;4.25;1.98;;;16.70;45.90;;;;;;5005894;28;20401;-47
2023/05/20 00:55:11;;;;;;;3.05;1.63;;;16.70;45.90;;;;;;4987913;28;20034;-46
2023/05/20 00:57:37;;;;;;;2.63;2.38;;;16.60;46.00;;;;;;5020035;28;20119;-47
2023/05/20 01:00:06;;;;;;;4.13;2.00;;;16.60;45.90;;;;;;4990891;28;20073;-45
2023/05/20 01:02:33;;;;;;;1.95;1.77;;;16.60;46.10;;;;;;4986950;28;20086;-49
2023/05/20 01:05:00;;;;;;;2.28;1.75;;;16.50;46.10;;;;;;5008967;28;20065;-46
2023/05/20 01:07:30;;;;;;;3.60;1.98;;;16.50;46.10;;;;;;5016358;28;20048;-46
2023/05/20 01:09:57;;;;;;;5.10;1.85;;;16.50;46.00;;;;;;5008730;28;20038;-45
2023/05/20 01:12:42;;;;;;;4.22;2.25;;;16.50;45.80;;;;;;5007217;28;20034;-47
2023/05/20 01:15:14;;;;;;;3.53;1.90;;;16.40;46.70;;;;;;4993544;28;20061;-45
2023/05/20 01:17:45;;;;;;;2.13;1.90;;;16.40;46.10;;;;;;5000093;28;20099;-47
2023/05/20 01:20:16;;;;;;;;;;;16.40;46.20;;;;;;5015850;28;20066;-46
2023/05/20 01:22:56;;;;;;;3.15;1.83;;;16.40;45.50;;;;;;5013072;28;19921;-46
2023/05/20 01:25:26;;;;;;;3.95;1.75;;;16.40;46.70;;;;;;5011282;28;20564;-47
2023/05/20 01:27:56;;;;;;;2.40;2.20;;;16.40;46.20;;;;;;5003463;28;20084;-46
2023/05/20 01:30:29;;;;;;;2.72;2.10;;;16.30;46.00;;;;;;5015821;28;20034;-45
2023/05/20 01:33:15;;;;;;;3.75;1.92;;;16.30;46.60;;;;;;5004536;28;20049;-47
2023/05/20 01:35:42;;;;;;;3.17;1.95;;;16.20;46.70;;;;;;5009644;28;20096;-46
2023/05/20 01:38:12;;;;;;;2.83;1.92;;;16.20;46.40;;;;;;4996523;28;20045;-45
2023/05/20 01:40:40;;;;;;;4.82;2.88;;;16.10;46.60;;;;;;4992617;28;20458;-46
2023/05/20 01:43:10;;;;;;;3.92;2.25;;;16.10;46.60;;;;;;5015415;28;20065;-48
2023/05/20 01:45:42;;;;;;;;;;;16.10;46.80;;;;;;5017335;28;20073;-46
2023/05/20 01:48:15;;;;;;;1.77;1.55;;;16.10;46.10;;;;;;4992077;28;19925;-47
2023/05/20 01:50:44;;;;;;;1.92;1.83;;;16.00;46.20;;;;;;5005776;28;20038;-45
2023/05/20 01:53:12;;;;;;;3.13;1.98;;;16.00;46.70;;;;;;4994142;28;20046;-46
2023/05/20 01:55:40;;;;;;;2.10;1.90;;;15.90;46.90;;;;;;5012591;28;20061;-45
2023/05/20 01:58:07;;;;;;;2.30;1.90;;;15.90;47.10;;;;;;4996756;28;20042;-47
2023/05/20 02:00:35;;;;;;;3.60;1.95;;;15.90;47.10;;;;;;4994755;28;20434;-46
2023/05/20 02:03:11;;;;;;;5.00;2.58;;;15.90;47.30;;;;;;5007859;28;20049;-46
2023/05/20 02:05:38;;;;;;;5.28;2.28;;;15.80;47.20;;;;;;4994772;28;20088;-46
2023/05/20 02:08:05;;;;;;;2.35;2.15;;;15.80;47.20;;;;;;4994636;28;20050;-48
2023/05/20 02:10:36;;;;;;;3.22;2.90;;;15.80;47.20;;;;;;5010459;28;20096;-45
2023/05/20 02:13:03;;;;;;;3.83;2.20;;;15.80;47.50;;;;;;4993657;28;20410;-45
2023/05/20 02:15:30;;;;;;;2.72;2.15;;;15.80;47.50;;;;;;4994433;28;20029;-47
2023/05/20 02:18:01;;;;;;;2.65;1.95;;;15.80;48.20;;;;;;5006303;28;20058;-46
2023/05/20 02:20:35;;;;;;;3.53;2.13;;;15.80;47.60;;;;;;4999234;28;20045;-46
2023/05/20 02:23:04;;;;;;;2.85;2.00;;;15.80;47.90;;;;;;4996545;28;20081;-47
2023/05/20 02:25:34;;;;;;;3.17;2.08;;;15.80;47.80;;;;;;5013937;28;20069;-46
2023/05/20 02:28:09;;;;;;;3.92;2.30;;;15.80;48.00;;;;;;5004589;28;20518;-45
2023/05/20 02:30:39;;;;;;;2.22;2.03;;;15.70;48.00;;;;;;4994355;28;20582;-46
2023/05/20 02:33:06;;;;;;;4.72;2.20;;;15.80;48.30;;;;;;5011467;28;20136;-45
2023/05/20 02:35:33;;;;;;;3.80;2.83;;;15.70;48.10;;;;;;4986494;28;20053;-48
2023/05/20 02:38:02;;;;;;;3.25;2.10;;;15.70;48.30;;;;;;4994436;28;20129;-46
2023/05/20 02:40:33;;;;;;;4.88;1.90;;;15.70;48.60;;;;;;4994151;28;20054;-45
2023/05/20 02:43:05;;;;;;;2.50;1.88;;;15.70;48.30;;;;;;5008988;28;20129;-45
2023/05/20 02:45:34;;;;;;;3.42;1.98;;;15.60;48.50;;;;;;4993665;28;20054;-46
2023/05/20 02:48:04;;;;;;;2.10;1.90;;;15.60;48.70;;;;;;4994745;28;20068;-46
2023/05/20 02:50:41;;;;;;;3.38;2.25;;;15.60;49.00;;;;;;5001477;28;20507;-47
2023/05/20 02:53:11;;;;;;;2.75;1.98;;;15.50;48.90;;;;;;4996736;28;20053;-45
2023/05/20 02:55:39;;;;;;;3.92;2.78;;;15.50;48.70;;;;;;5016055;28;20045;-49
2023/05/20 02:58:12;;;;;;;2.33;1.92;;;15.50;48.90;;;;;;5029482;28;20037;-46
2023/05/20 03:00:45;;;;;;;4.55;2.10;;;15.50;48.90;;;;;;5001546;28;20100;-49
2023/05/20 03:03:14;;;;;;;5.18;2.42;;;15.50;49.30;;;;;;4993826;28;20073;-48
2023/05/20 03:05:44;;;;;;;3.10;2.45;;;15.50;49.00;;;;;;4993645;28;20080;-49
2023/05/20 03:08:12;;;;;;;2.95;2.40;;;15.50;49.00;;;;;;4993986;28;20053;-48
2023/05/20 03:10:41;;;;;;;3.97;2.40;;;15.40;49.00;;;;;;5006087;28;20074;-48
2023/05/20 03:13:10;;;;;;;3.10;2.60;;;15.40;49.10;;;;;;4989890;28;20481;-47
2023/05/20 03:15:44;;;;;;;3.10;2.45;;;15.40;49.10;;;;;;4993528;28;20046;-46
2023/05/20 03:18:13;;;;;;;4.10;2.10;;;15.40;49.60;;;;;;4993250;28;20062;-47
2023/05/20 03:20:40;;;;;;;2.95;2.13;;;15.40;49.30;;;;;;4987724;28;20096;-46
2023/05/20 03:23:08;;;;;;;3.22;2.10;;;15.40;49.20;;;;;;4991380;28;20061;-45
2023/05/20 03:25:37;;;;;;;4.72;2.65;;;15.40;49.50;;;;;;4994736;28;20057;-47
2023/05/20 03:28:05;;;;;;;3.90;2.17;;;15.40;49.60;;;;;;5004256;28;20076;-46
2023/05/20 03:30:34;;;;;;;3.00;2.40;;;15.40;49.80;;;;;;4993440;28;20242;-45
2023/05/20 03:33:02;;;;;;;3.67;2.40;;;15.40;49.70;;;;;;5010026;28;20053;-48
2023/05/20 03:35:34;;;;;;;3.80;2.60;;;15.30;49.80;;;;;;5009122;28;20033;-49
2023/05/20 03:38:01;;;;;;;4.15;3.78;;;15.30;49.90;;;;;;5007821;28;20054;-46
2023/05/20 03:40:29;;;;;;;2.47;2.20;;;15.30;49.90;;;;;;4993374;28;20049;-46
2023/05/20 03:42:55;;;;;;;3.72;2.55;;;15.30;50.10;;;;;;4989641;28;20436;-46
2023/05/20 03:45:24;;;;;;;2.47;2.28;;;15.30;50.30;;;;;;4993357;28;20041;-47
2023/05/20 03:48:02;;;;;;;4.30;2.35;;;15.30;50.30;;;;;;4994137;28;20132;-46
2023/05/20 03:50:30;;;;;;;3.88;2.40;;;15.30;50.40;;;;;;4989827;28;20529;-47
2023/05/20 03:52:57;;;;;;;3.88;2.35;;;15.20;50.30;;;;;;5017835;28;20072;-46
2023/05/20 03:55:28;;;;;;;5.18;2.70;;;15.20;50.50;;;;;;5003303;28;20608;-47
2023/05/20 03:57:59;;;;;;;3.23;2.40;;;15.20;50.50;;;;;;5022440;28;20509;-45
2023/05/20 04:00:30;;;;;;;6.05;2.63;;;15.20;50.50;;;;;;4985723;28;20576;-44
2023/05/20 04:02:57;;;;;;;3.95;2.67;;;15.20;50.70;;;;;;4987419;28;20041;-45
2023/05/20 04:05:25;;;;;;;2.83;2.50;;;15.20;50.80;;;;;;4986265;28;20514;-46
2023/05/20 04:07:56;;;;;;;3.25;2.30;;;15.20;50.80;;;;;;5001642;28;20414;-46
2023/05/20 04:10:26;;;;;;;3.95;2.40;;;15.20;50.90;;;;;;4992209;28;20594;-48
2023/05/20 04:12:52;;;;;;;3.72;2.33;;;15.20;50.90;;;;;;4989544;28;20050;-45
2023/05/20 04:15:22;;;;;;;3.70;2.45;;;15.20;51.10;;;;;;4984481;28;20510;-47
2023/05/20 04:17:53;;;;;;;3.20;2.50;;;15.20;51.10;;;;;;4996974;28;20045;-45
2023/05/20 04:20:28;;;;;;;3.00;2.50;;;15.20;51.00;;;;;;5007151;28;20434;-48
2023/05/20 04:22:59;;;;;;;4.50;2.78;;;15.20;51.50;;;;;;4984749;28;20041;-46
2023/05/20 04:25:27;;;;;;;3.65;2.42;;;15.20;51.40;;;;;;4981949;28;20053;-45
2023/05/20 04:27:56;;;;;;;2.92;2.60;;;15.20;51.40;;;;;;5008307;28;20116;-46
2023/05/20 04:30:32;;;;;;;5.72;2.63;;;15.20;51.50;;;;;;5007393;28;20569;-45
2023/05/20 04:33:02;;;;;;;3.47;2.63;;;15.20;51.80;;;;;;4993530;28;20049;-46
2023/05/20 04:35:34;;;;;;;3.47;2.70;;;15.20;51.80;;;;;;4993709;28;20046;-48
2023/05/20 04:38:04;;;;;;;4.97;2.67;;;15.20;51.60;;;;;;4992799;28;20053;-48
2023/05/20 04:40:39;;;;;;;5.47;2.63;;;15.20;51.80;;;;;;4990671;28;20054;-46
2023/05/20 04:43:07;;;;;;;3.25;2.15;;;15.20;52.10;;;;;;4989828;28;20049;-46
2023/05/20 04:45:36;;;;;;;3.72;2.88;;;15.20;51.70;;;;;;4992331;28;20041;-45
2023/05/20 04:48:05;;;;;;;3.83;2.30;;;15.20;51.80;;;;;;5009742;28;20058;-46
2023/05/20 04:50:36;;;;;;;3.13;2.60;;;15.20;51.90;;;;;;4985231;28;20494;-46
2023/05/20 04:53:05;;;;;;;2.65;2.40;;;15.30;52.20;;;;;;4991491;28;20084;-46
2023/05/20 04:55:32;;;;;;;3.63;2.45;;;15.30;52.20;;;;;;5003994;28;20447;-45
2023/05/20 04:58:00;;;;;;;5.78;3.33;;;15.30;52.20;;;;;;4992449;28;20049;-45
2023/05/20 05:00:27;;;;;;;3.15;2.35;;;15.30;52.20;;;;;;4991626;28;20462;-45
2023/05/20 05:02:58;;;;;;;4.18;2.70;;;15.30;52.10;;;;;;4988552;28;20049;-46
2023/05/20 05:05:27;;;;;;;5.30;3.20;;;15.30;52.30;;;;;;5009014;28;20041;-46
2023/05/20 05:08:01;;;;;;;3.85;2.38;;;15.40;52.30;;;;;;5010209;28;20045;-47
2023/05/20 05:10:32;;;;;;;3.20;2.90;;;15.40;52.30;;;;;;5009653;28;20050;-45
2023/05/20 05:13:01;;;;;;;4.13;2.50;;;15.40;52.30;;;;;;4981146;28;20051;-44
2023/05/20 05:15:34;;;;;;;3.17;2.88;;;15.40;52.50;;;;;;5002121;28;20045;-44
2023/05/20 05:18:03;;;;;;;4.78;2.97;;;15.40;52.70;;;;;;5003416;28;20041;-45
2023/05/20 05:20:32;;;;;;;2.95;2.50;;;15.40;52.30;;;;;;4986024;28;20464;-45
2023/05/20 05:23:01;;;;;;;3.75;2.75;;;15.50;52.50;;;;;;5016141;28;20058;-47
2023/05/20 05:25:31;;;;;;;3.15;2.50;;;15.50;52.50;;;;;;4994269;28;20052;-45
2023/05/20 05:28:03;;;;;;;3.72;2.33;;;15.50;52.60;;;;;;4988481;28;20042;-46
2023/05/20 05:30:32;;;;;;;3.97;2.20;;;15.60;52.50;;;;;;4987219;28;20884;-46
2023/05/20 05:33:00;;;;;;;4.15;2.65;;;15.60;52.80;;;;;;4980326;28;20038;-47
2023/05/20 05:35:28;;;;;;;4.10;2.45;;;15.60;52.80;;;;;;4991671;28;20137;-46
2023/05/20 05:37:56;;;;;;;5.43;3.03;;;15.60;52.60;;;;;;5017095;28;20037;-45
2023/05/20 05:40:25;;;;;;;4.57;3.25;;;15.60;52.70;;;;;;4995466;28;20037;-47
2023/05/20 05:42:54;;;;;;;3.13;2.33;;;15.70;52.70;;;;;;4991181;28;20045;-47
2023/05/20 05:45:21;;;;;;;4.38;2.80;;;15.70;52.70;;;;;;5011542;28;20081;-47
2023/05/20 05:47:49;;;;;;;3.75;2.60;;;15.80;52.70;;;;;;4995974;28;20635;-46
2023/05/20 05:50:16;;;;;;;2.92;2.63;;;15.80;52.70;;;;;;4994514;28;20052;-48
2023/05/20 05:52:56;;;;;;;3.20;2.63;;;15.80;52.90;;;;;;5008661;28;20046;-48
2023/05/20 05:55:23;;;;;;;3.63;2.53;;;15.80;52.70;;;;;;4989091;28;20042;-47
2023/05/20 05:57:50;;;;;;;3.08;2.75;;;15.90;52.90;;;;;;5001747;28;20048;-51
2023/05/20 06:00:26;;;;;;;4.68;2.80;;;15.90;52.90;;;;;;5022970;28;20542;-48
2023/05/20 06:02:54;;;;;;;3.05;2.50;;;16.00;53.20;;;;;;5000542;28;20141;-48
2023/05/20 06:05:37;;;;;;;5.65;3.05;;;16.00;53.00;;;;;;4997903;28;20129;-50
2023/05/20 06:08:07;;;;;;;5.10;3.20;;;16.00;52.90;;;;;;5011738;28;20235;-50
2023/05/20 06:10:45;;;;;;;3.72;2.78;;;16.00;53.00;;;;;;5002888;28;20039;-48
2023/05/20 06:13:12;;;;;;;4.63;3.08;;;16.10;53.10;;;;;;5015431;28;20052;-49
2023/05/20 06:15:55;;;;;;;2.67;2.47;;;16.10;52.70;;;;;;4993850;28;20048;-48
2023/05/20 06:18:25;;;;;;;4.07;3.17;;;16.20;53.00;;;;;;5000576;28;20072;-51
2023/05/20 06:21:03;;;;;;;4.50;2.60;;;16.20;52.80;;;;;;4985833;28;20050;-48
2023/05/20 06:23:35;;;;;;;4.22;2.78;;;16.20;52.80;;;;;;4982293;28;20129;-51
2023/05/20 06:26:09;;;;;;;3.05;2.65;;;16.30;52.70;;;;;;4987679;28;20046;-48
2023/05/20 06:28:35;;;;;;;2.78;2.47;;;16.30;52.70;;;;;;4985724;28;20414;-48
2023/05/20 06:31:02;;;;;;;4.22;2.70;;;16.40;52.80;;;;;;4993158;28;20042;-51
2023/05/20 06:33:40;;;;;;;5.60;2.85;;;16.40;53.00;;;;;;4991003;28;20408;-48
2023/05/20 06:36:11;;;;;;;4.90;2.95;;;16.50;52.80;;;;;;4986820;28;20052;-49
2023/05/20 06:38:37;;;;;;;6.60;2.88;;;16.50;52.70;;;;;;5009122;28;20045;-51
2023/05/20 06:41:06;;;;;;;4.28;3.60;;;16.60;52.60;;;;;;4984111;28;20054;-50
2023/05/20 06:43:33;;;;;;;4.82;3.13;;;16.60;52.70;;;;;;4991857;28;20506;-50
2023/05/20 06:46:15;;;;;;;6.55;2.60;;;16.60;52.60;;;;;;4985617;28;20053;-52
2023/05/20 06:48:52;;;;;;;3.17;2.83;;;16.70;52.50;;;;;;4992865;28;20123;-49
2023/05/20 06:51:21;;;;;;;6.28;3.17;;;16.80;52.30;;;;;;4987106;28;20061;-52
2023/05/20 06:53:49;;;;;;;4.28;3.25;;;16.80;52.40;;;;;;4988262;28;20615;-49
2023/05/20 06:56:15;;;;;;;3.50;3.03;;;16.90;52.30;;;;;;4991706;28;20045;-50
2023/05/20 06:58:43;;;;;;;4.20;3.60;;;16.90;52.30;;;;;;4996347;28;20133;-52
2023/05/20 07:01:09;;;;;;;3.88;3.05;;;16.90;52.40;;;;;;4993273;28;20046;-51
2023/05/20 07:03:39;;;;;;;4.53;3.38;;;17.00;52.30;;;;;;4994505;28;20667;-50
2023/05/20 07:06:06;;;;;;;3.45;2.97;;;17.00;52.10;;;;;;5016640;28;20049;-50
2023/05/20 07:08:33;;;;;;;4.20;3.03;;;17.10;52.10;;;;;;4997592;28;20038;-51
2023/05/20 07:11:00;;;;;;;4.20;3.17;;;17.10;52.00;;;;;;5002530;28;20124;-51
2023/05/20 07:13:28;;;;;;;4.03;2.95;;;17.10;52.20;;;;;;5016602;28;20038;-50
2023/05/20 07:15:57;;;;;;;5.07;3.00;;;17.20;52.10;;;;;;4998016;28;20144;-50
2023/05/20 07:18:25;;;;;;;3.65;3.35;;;17.30;52.10;;;;;;4992762;28;20053;-50
2023/05/20 07:20:55;;;;;;;5.35;3.20;;;17.30;52.20;;;;;;4990495;28;20834;-51
2023/05/20 07:23:35;;;;;;;4.07;2.92;;;17.40;52.10;;;;;;4996033;28;20145;-50
2023/05/20 07:26:03;;;;;;;3.58;3.28;;;17.40;52.20;;;;;;4984987;28;20046;-49
2023/05/20 07:28:30;;;;;;;4.55;3.63;;;17.40;52.00;;;;;;4973282;28;20065;-49
2023/05/20 07:30:59;;;;;;;3.85;3.10;;;17.50;52.40;;;;;;4995368;28;20042;-51
2023/05/20 07:33:28;;;;;;;6.05;3.40;;;17.60;51.80;;;;;;4995812;28;20132;-49
2023/05/20 07:36:03;;;;;;;5.10;3.50;;;17.60;51.60;;;;;;5006404;28;20041;-51
2023/05/20 07:38:33;;;;;;;4.18;3.17;;;17.70;51.70;;;;;;4989959;28;20042;-51
2023/05/20 07:41:07;;;;;;;4.18;3.60;;;17.70;51.40;;;;;;4984691;28;20070;-52
2023/05/20 07:43:33;;;;;;;5.53;3.10;;;17.80;51.30;;;;;;5008316;28;20048;-52
2023/05/20 07:46:01;;;;;;;4.07;2.95;;;17.80;51.20;;;;;;4988118;28;20037;-52
2023/05/20 07:48:31;;;;;;;4.55;3.10;;;17.90;51.40;;;;;;4983734;28;20054;-51
2023/05/20 07:50:58;;;;;;;4.40;2.75;;;18.00;51.50;;;;;;5010087;28;20042;-48
2023/05/20 07:53:26;;;;;;;3.00;2.47;;;18.00;51.00;;;;;;4993889;28;20137;-52
2023/05/20 07:55:53;;;;;;;5.55;3.05;;;18.10;51.00;;;;;;4981242;28;20042;-49
2023/05/20 07:58:27;;;;;;;2.57;2.23;;;18.20;51.00;;;;;;5000422;28;20511;-48
2023/05/20 08:01:02;;;;;;;3.00;2.53;;;18.30;50.40;;;;;;4992754;28;20103;-50
2023/05/20 08:03:29;;;;;;;3.58;2.42;;;18.40;50.20;;;;;;4993900;28;20054;-49
2023/05/20 08:06:12;;;;;;;3.95;3.13;;;18.40;49.90;;;;;;5007556;28;20100;-50
2023/05/20 08:08:42;;;;;;;2.50;2.30;;;18.50;49.70;;;;;;4984526;28;20038;-51
2023/05/20 08:11:16;;;;;;;7.60;3.15;;;18.60;49.30;;;;;;4989703;28;20141;-52
2023/05/20 08:13:51;;;;;;;4.28;2.85;;;18.60;49.10;;;;;;5008821;28;20042;-49
2023/05/20 08:16:20;;;;;;;7.05;2.50;;;18.70;49.30;;;;;;4992345;28;20461;-52
2023/05/20 08:18:47;;;;;;;3.97;2.35;;;18.70;49.10;;;;;;4979894;28;20042;-51
2023/05/20 08:21:18;;;;;;;5.38;3.03;;;18.80;49.10;;;;;;4989767;28;20043;-49
2023/05/20 08:23:47;;;;;;;3.85;3.10;;;18.90;49.10;;;;;;4989415;28;20503;-48
2023/05/20 08:26:14;;;;;;;5.57;2.90;;;18.90;49.20;;;;;;4987625;28;20108;-50
2023/05/20 08:28:44;;;;;;;5.13;2.80;;;19.00;48.90;;;;;;4976370;28;20065;-51
2023/05/20 08:31:11;;;;;;;5.43;3.08;;;19.00;48.50;;;;;;4989112;28;20138;-51
2023/05/20 08:33:42;;;;;;;4.53;3.00;;;19.10;48.50;;;;;;4986010;28;20153;-52
2023/05/20 08:36:10;;;;;;;4.80;3.17;;;19.10;48.30;;;;;;4984682;28;20057;-48
2023/05/20 08:38:39;;;;;;;3.08;2.55;;;19.20;48.40;;;;;;4991324;28;20069;-50
2023/05/20 08:41:06;;;;;;;9.93;3.72;;;19.20;48.20;;;;;;4989732;28;20499;-48
2023/05/20 08:43:35;;;;;;;3.42;2.72;;;19.30;48.00;;;;;;4988871;28;20077;-49
2023/05/20 08:46:05;;;;;;;2.97;2.55;;;19.30;48.10;;;;;;4992071;28;20085;-52
2023/05/20 08:48:34;;;;;;;4.78;3.17;;;19.30;47.90;;;;;;4986575;28;20068;-51
2023/05/20 08:51:02;;;;;;;3.53;3.10;;;19.40;48.10;;;;;;5020326;28;20068;-48
2023/05/20 08:53:29;;;;;;;3.13;2.88;;;19.40;48.00;;;;;;5022023;28;20041;-48
2023/05/20 08:56:01;;;;;;;3.63;2.90;;;19.50;48.40;;;;;;5013090;28;20037;-51
2023/05/20 08:58:29;;;;;;;4.05;2.67;;;19.60;48.20;;;;;;5009234;28;20129;-51
2023/05/20 09:00:59;;;;;;;3.30;2.97;;;19.70;48.70;;;;;;5009375;28;20108;-51
2023/05/20 09:03:26;;;;;;;4.00;2.90;;;19.80;47.90;;;;;;5026241;28;20136;-51
2023/05/20 09:06:02;;;;;;;5.57;2.70;;;20.00;48.10;;;;;;5011791;28;20768;-51
2023/05/20 09:08:30;;;;;;;3.97;2.60;;;20.10;47.70;;;;;;5017897;28;20048;-49
2023/05/20 09:10:56;;;;;;;3.42;3.10;;;20.40;47.90;;;;;;5014210;28;20124;-49
2023/05/20 09:13:28;;;;;;;3.28;2.97;;;20.50;47.30;;;;;;4991072;28;20129;-51
2023/05/20 09:16:02;;;;;;;5.90;3.90;;;20.70;47.10;;;;;;5009253;28;20517;-47
2023/05/20 09:18:30;;;;;;;3.38;3.08;;;20.80;46.60;;;;;;5010276;28;20042;-50
2023/05/20 09:20:56;;;;;;;4.40;3.05;;;21.00;46.60;;;;;;5004356;28;20041;-49
2023/05/20 09:23:26;;;;;;;5.43;3.17;;;21.10;46.10;;;;;;5009505;28;20041;-51
2023/05/20 09:25:53;;;;;;;6.45;3.67;;;21.20;45.90;;;;;;4996313;28;20150;-52
2023/05/20 09:28:23;;;;;;;4.00;3.55;;;21.20;45.50;;;;;;5015629;28;20128;-52
2023/05/20 09:30:56;;;;;;;5.55;3.20;;;21.30;45.40;;;;;;5004784;28;20057;-51
2023/05/20 09:33:28;;;;;;;10.00;3.85;;;21.40;45.60;;;;;;5005443;28;20113;-50
2023/05/20 09:36:06;;;;;;;4.13;3.30;;;21.40;45.40;;;;;;5007424;28;20121;-51
2023/05/20 09:38:37;;;;;;;5.60;4.35;;;21.50;45.10;;;;;;5018375;28;20723;-51
2023/05/20 09:41:09;;;;;;;;;;;21.50;45.00;;;;;;5017461;28;20125;-51
2023/05/20 09:43:42;;;;;;;3.33;3.03;;;21.60;45.10;;;;;;5013384;28;20004;-50
2023/05/20 09:46:10;;;;;;;3.80;3.38;;;21.60;45.30;;;;;;5001181;28;20579;-51
2023/05/20 09:48:37;;;;;;;4.57;3.25;;;21.50;45.10;;;;;;5013507;28;20391;-48
2023/05/20 09:51:05;;;;;;;2.78;2.58;;;21.60;45.40;;;;;;5012892;28;20042;-52
2023/05/20 09:53:32;;;;;;;5.18;3.50;;;21.60;45.70;;;;;;5011063;28;20490;-49
2023/05/20 09:55:59;;;;;;;5.20;4.07;;;21.60;45.70;;;;;;5008784;28;20056;-49
2023/05/20 09:58:28;;;;;;;6.50;4.07;;;21.70;45.70;;;;;;5020723;28;20056;-49
2023/05/20 10:00:55;;;;;;;3.53;3.03;;;21.70;45.60;;;;;;5004560;28;20052;-49
2023/05/20 10:03:26;;;;;;;4.35;3.58;;;21.80;45.40;;;;;;5010125;28;20037;-50
2023/05/20 10:06:07;;;;;;;;;;;21.90;45.00;;;;;;5015913;28;20591;-52
2023/05/20 10:08:52;;;;;;;4.50;3.40;;;21.90;45.00;;;;;;5021288;28;19921;-49
2023/05/20 10:12:03;;;;;;;4.15;3.60;;;22.00;45.10;;;;;;5017688;28;20121;-52
2023/05/20 10:14:39;;;;;;;4.05;3.63;;;22.00;45.00;;;;;;5017639;28;20038;-52
2023/05/20 10:17:23;;;;;;;4.07;3.67;;;22.00;44.90;;;;;;5024799;28;20555;-51
2023/05/20 10:19:56;;;;;;;5.03;4.03;;;22.00;45.30;;;;;;5017250;28;20042;-52
2023/05/20 10:22:30;;;;;;;4.95;3.83;;;22.00;45.20;;;;;;5007093;28;20077;-52
2023/05/20 10:25:07;;;;;;;4.22;3.83;;;22.00;45.20;;;;;;5013831;28;20121;-52
2023/05/20 10:27:47;;;;;;;5.30;3.60;;;22.00;45.50;;;;;;5010345;28;20072;-51
2023/05/20 10:30:21;;;;;;;3.75;3.45;;;21.90;45.00;;;;;;4996168;28;20180;-53
2023/05/20 10:32:55;;;;;;;4.43;4.03;;;21.90;45.40;;;;;;5008985;28;20116;-50
2023/05/20 10:35:26;;;;;;;5.38;4.28;;;21.90;45.10;;;;;;5017195;28;20038;-53
2023/05/20 10:38:06;;;;;;;5.43;4.07;;;21.90;45.40;;;;;;5015149;28;20054;-49
2023/05/20 10:40:32;;;;;;;6.72;4.38;;;21.90;45.30;;;;;;5015013;28;20095;-48
2023/05/20 10:43:12;;;;;;;6.60;3.85;;;22.00;45.70;;;;;;5014559;28;20826;-52
2023/05/20 10:45:50;;;;;;;5.80;4.13;;;22.10;45.80;;;;;;5021305;28;20084;-48
2023/05/20 10:48:28;;;;;;;6.35;3.92;;;22.10;45.50;;;;;;5007280;28;20140;-52
2023/05/20 10:50:56;;;;;;;6.28;3.92;;;22.30;45.90;;;;;;5014008;28;20096;-52
2023/05/20 10:53:25;;;;;;;5.95;4.88;;;22.30;45.60;;;;;;5011022;28;20121;-51
2023/05/20 10:56:00;;;;;;;4.22;3.83;;;22.40;45.30;;;;;;5012482;28;20033;-52
2023/05/20 10:58:27;;;;;;;6.88;4.13;;;22.40;45.00;;;;;;5011037;28;20701;-50
2023/05/20 11:00:54;;;;;;;3.92;3.50;;;22.50;45.50;;;;;;5002563;28;20668;-53
2023/05/20 11:03:22;;;;;;;4.93;4.18;;;22.50;45.50;;;;;;5002210;28;20061;-52
2023/05/20 11:05:52;;;;;;;4.20;3.83;;;22.60;44.70;;;;;;5014979;28;20046;-49
2023/05/20 11:08:26;;;;;;;4.70;4.13;;;22.70;44.60;;;;;;5014110;28;20046;-52
2023/05/20 11:10:56;;;;;;;5.32;4.07;;;22.70;44.70;;;;;;5018743;28;20049;-49
2023/05/20 11:13:24;;;;;;;5.63;5.03;;;22.80;45.00;;;;;;4995141;28;20065;-52
2023/05/20 11:15:51;;;;;;;7.88;4.70;;;22.80;44.30;;;;;;5012611;28;20542;-52
2023/05/20 11:18:20;;;;;;;5.07;4.53;;;22.90;44.20;;;;;;5018298;28;20038;-53
2023/05/20 11:20:47;;;;;;;6.53;4.90;;;22.90;44.30;;;;;;5019017;28;20046;-52
2023/05/20 11:23:14;;;;;;;5.57;5.07;;;22.90;44.30;;;;;;5019600;28;20042;-51
2023/05/20 11:25:41;;;;;;;5.38;4.43;;;23.00;44.40;;;;;;5012203;28;20124;-52
2023/05/20 11:28:12;;;;;;;5.72;4.53;;;23.10;44.60;;;;;;5015285;28;20049;-51
2023/05/20 11:30:41;;;;;;;4.53;4.13;;;23.20;44.60;;;;;;5011375;28;20041;-49
2023/05/20 11:33:11;;;;;;;5.32;4.40;;;23.30;44.40;;;;;;5022570;28;20410;-54
2023/05/20 11:35:51;;;;;;;5.82;5.22;;;23.50;44.80;;;;;;5016646;28;20054;-53
2023/05/20 11:38:23;;;;;;;6.40;4.82;;;23.60;43.90;;;;;;5016002;28;20511;-51
2023/05/20 11:40:52;;;;;;;7.10;4.80;;;23.70;43.60;;;;;;5019461;28;20124;-53
2023/05/20 11:43:20;;;;;;;7.47;5.40;;;23.80;44.40;;;;;;5010940;28;20050;-49
2023/05/20 11:46:00;;;;;;;10.45;5.35;;;23.90;43.50;;;;;;5009850;28;20050;-53
2023/05/20 11:48:27;;;;;;;8.02;6.05;;;23.90;43.20;;;;;;5014781;28;20091;-49
2023/05/20 11:50:55;;;;;;;6.35;5.22;;;23.90;43.10;;;;;;5014033;28;20046;-51
2023/05/20 11:53:22;;;;;;;6.68;5.47;;;24.00;43.00;;;;;;5010847;28;20037;-54
2023/05/20 11:55:58;;;;;;;5.68;5.07;;;24.00;42.60;;;;;;5012915;28;20038;-52
2023/05/20 11:58:27;;;;;;;5.78;4.35;;;24.00;42.40;;;;;;5012458;28;20054;-50
2023/05/20 12:00:54;;;;;;;6.30;5.68;;;24.00;42.90;;;;;;5009987;28;20037;-52
2023/05/20 12:03:39;;;;;;;5.65;4.93;;;24.00;42.50;;;;;;5010356;28;20037;-52
2023/05/20 12:06:06;;;;;;;8.70;4.53;;;24.00;43.10;;;;;;5020780;28;20128;-52
2023/05/20 12:08:33;;;;;;;7.05;4.47;;;24.00;42.90;;;;;;5012678;28;20529;-51
2023/05/20 12:11:00;;;;;;;6.28;4.75;;;24.10;43.30;;;;;;5010839;28;20047;-51
2023/05/20 12:13:26;;;;;;;5.82;5.07;;;24.10;42.50;;;;;;4994300;28;20041;-52
2023/05/20 12:15:53;;;;;;;6.47;4.93;;;24.10;42.00;;;;;;5016261;28;20636;-49
2023/05/20 12:18:21;;;;;;;5.03;4.53;;;24.10;42.40;;;;;;4991462;28;20100;-53
2023/05/20 12:20:48;;;;;;;5.82;4.32;;;24.10;42.60;;;;;;5005433;28;20042;-52
2023/05/20 12:23:14;;;;;;;5.38;3.80;;;24.10;43.30;;;;;;5012269;28;20037;-50
2023/05/20 12:25:42;;;;;;;4.90;4.18;;;24.20;43.10;;;;;;5000292;28;20100;-53
2023/05/20 12:28:08;;;;;;;6.00;4.63;;;24.30;42.80;;;;;;5009697;28;20049;-48
2023/05/20 12:30:35;;;;;;;5.10;4.60;;;24.40;42.30;;;;;;5016517;28;20041;-48
2023/05/20 12:33:02;;;;;;;5.57;4.93;;;24.50;42.10;;;;;;5018180;28;20601;-53
2023/05/20 12:35:40;;;;;;;5.75;5.10;;;24.50;42.20;;;;;;5010122;28;20084;-54
2023/05/20 12:38:08;;;;;;;3.75;3.45;;;24.70;42.30;;;;;;5015407;28;20095;-51
2023/05/20 12:40:35;;;;;;;7.50;3.80;;;24.80;42.50;;;;;;5016931;28;20112;-52
2023/05/20 12:43:04;;;;;;;6.43;4.18;;;24.90;42.40;;;;;;5013187;28;20054;-49
2023/05/20 12:45:31;;;;;;;4.72;3.95;;;25.10;41.70;;;;;;5013436;28;20104;-50
2023/05/20 12:47:58;;;;;;;5.78;4.13;;;25.30;41.40;;;;;;5011936;28;20045;-51
2023/05/20 12:50:24;;;;;;;4.25;3.83;;;25.40;41.60;;;;;;4982800;28;20046;-52
2023/05/20 12:52:54;;;;;;;5.10;4.53;;;25.60;41.10;;;;;;5007110;28;20046;-52
2023/05/20 12:55:22;;;;;;;6.57;4.10;;;25.70;40.70;;;;;;5007609;28;20033;-53
2023/05/20 12:57:49;;;;;;;5.32;4.18;;;25.90;41.10;;;;;;5006913;28;20453;-49
2023/05/20 13:00:16;;;;;;;6.85;4.00;;;26.00;40.90;;;;;;5009535;28;20045;-53
2023/05/20 13:02:43;;;;;;;4.88;4.10;;;26.20;40.70;;;;;;5002086;28;20093;-52